EA3GYL La Torregassa ES current weather conditions

sailwx.info

Wind from 178

Air temperature 6.7° C
Dewpoint 3.1° C

Last reported at 2020-Jan-27 07:30 UTC.
Time now 2020-Jan-27 08:29 UTC

Location: N 41°17' E 001°31'.
View on Google Maps.

See reports from other nearby stations

  
Tides and Currents Weather Stations Pressure Air Temp Water Temp Dewpoint Dewpoint Depression Visibility Wind Speed Wind Dir Waves Ship Positions
date/time (UTC)wind fromknots sea level pressurealtimeterstation pressurevisibilityair tempwater tempwave heightnotes
2020-Jan-27 08:00 308 0 gusting 3 7.2
2020-Jan-27 07:30 178 6.7
2020-Jan-27 07:00 293 1 gusting 5 8.9
2020-Jan-27 06:30 327 3 gusting 10 10.0
2020-Jan-27 06:00 314 4 gusting 10 9.4
2020-Jan-27 05:30 306 1 gusting 5 8.9
2020-Jan-27 05:00 346 0 gusting 4 8.3
2020-Jan-27 04:30 306 1 gusting 6 9.4
2020-Jan-27 04:00 288 2 gusting 6 8.9
2020-Jan-27 03:30 306 3 gusting 7 9.4
2020-Jan-27 03:00 345 1 gusting 3 8.3
2020-Jan-27 02:30 307 0 gusting 1 8.9
2020-Jan-27 02:00 318 7.8
2020-Jan-27 01:30 326 7.8
2020-Jan-27 01:00 305 1 gusting 2 6.7
2020-Jan-27 00:30 276 6.7
2020-Jan-27 00:00 317 7.2
2020-Jan-26 23:30 271 7.8
2020-Jan-26 23:00 272 8.3
2020-Jan-26 22:30 341 0 gusting 1 7.8
2020-Jan-26 22:00 322 7.8
2020-Jan-26 21:30 352 8.3
2020-Jan-26 21:00 236 8.3
2020-Jan-26 20:30 231 8.3
2020-Jan-26 20:00 345 0 gusting 1 9.4
2020-Jan-26 19:30 008 9.4
2020-Jan-26 16:00 005 1 gusting 5 13.9
2020-Jan-26 15:30 358 3 gusting 6 13.9
2020-Jan-26 15:00 358 4 gusting 9 14.4
2020-Jan-26 14:30 334 3 gusting 8 14.4
2020-Jan-26 14:00 304 5 gusting 9 13.9
2020-Jan-26 13:30 311 4 gusting 9 14.4
2020-Jan-26 13:00 303 3 gusting 9 15.0
2020-Jan-26 12:30 327 0 gusting 4 15.6
2020-Jan-26 12:00 300 1 gusting 6 14.4
2020-Jan-26 11:30 096 13.3
2020-Jan-26 11:00 110 12.2
2020-Jan-26 10:30 083 0 gusting 2 11.1
2020-Jan-26 10:00 091 11.1
2020-Jan-26 09:30 111 10.6
2020-Jan-26 09:00 110 10.0
2020-Jan-26 08:30 8.9
2020-Jan-26 08:00 7.8
2020-Jan-26 07:30 7.8
2020-Jan-26 07:00 7.8
2020-Jan-26 06:30 332 8.3
2020-Jan-26 06:00 342 8.3
2020-Jan-26 05:30 7.8
2020-Jan-26 05:00 334 7.8
2020-Jan-26 04:30 9.4
2020-Jan-26 04:00 011 9.4
2020-Jan-26 03:30 336 8.9
2020-Jan-26 03:00 055 8.3
2020-Jan-26 02:30 055 8.3
2020-Jan-26 02:00 211 8.3
2020-Jan-26 01:30 211 8.3
2020-Jan-26 01:00 8.3
2020-Jan-26 00:30 8.9
2020-Jan-26 00:00 001 1 gusting 3 10.0
2020-Jan-25 23:30 030 0 gusting 2 10.0
2020-Jan-25 23:00 046 2 gusting 5 10.6
2020-Jan-25 22:30 043 1 gusting 4 10.6
2020-Jan-25 22:00 050 0 gusting 4 10.6
2020-Jan-25 21:30 355 0 gusting 2 10.6
2020-Jan-25 21:00 347 0 gusting 1 10.6
2020-Jan-25 20:30 018 0 gusting 3 10.6
2020-Jan-25 20:00 040 10.6
2020-Jan-25 19:30 054 11.1
2020-Jan-25 19:00 060 11.1
2020-Jan-25 18:30 050 0 gusting 4 11.1
2020-Jan-25 18:00 009 0 gusting 2 11.1
2020-Jan-25 17:30 037 11.1
2020-Jan-25 17:00 11.1
2020-Jan-25 16:30 077 0 gusting 3 11.7
2020-Jan-25 16:00 076 1 gusting 6 12.8
2020-Jan-25 15:30 075 0 gusting 3 12.8
2020-Jan-25 15:00 072 1 gusting 4 12.2
2020-Jan-25 14:30 071 1 gusting 4 12.2
2020-Jan-25 14:00 069 1 gusting 5 12.2
2020-Jan-25 13:30 096 1 gusting 5 12.8
2020-Jan-25 13:00 091 1 gusting 5 12.8
2020-Jan-25 12:30 092 0 gusting 4 12.8
2020-Jan-25 12:00 072 1 gusting 5 12.8
2020-Jan-25 11:30 058 2 gusting 6 12.2
2020-Jan-25 11:00 043 2 gusting 6 11.7
2020-Jan-25 10:30 068 0 gusting 3 10.6
2020-Jan-25 10:00 058 1 gusting 4 10.0
2020-Jan-25 09:30 028 9.4
2020-Jan-25 09:00 113 8.9
2020-Jan-25 08:30 8.3
2020-Jan-25 08:00 273 8.3